Time;durP1;ratioP1;P1;durP2;ratioP2;P2;SDS_P1;SDS_P2;PMS_P1;PMS_P2;Temp;Humidity;BMP_temperature;BMP_pressure;BME280_temperature;BME280_humidity;BME280_pressure;Samples;Min_cycle;Max_cycle;Signal;HPM_P1;HPM_P2
2023/06/19 00:00:18;;;;;;;11.47;7.87;;;;;;;;;;5074035;28;20537;-66
2023/06/19 00:02:44;;;;;;;9.77;8.10;;;;;;;;;;5076863;28;20177;-66
2023/06/19 00:05:10;;;;;;;15.80;8.57;;;;;;;;;;5077365;28;20178;-66
2023/06/19 00:07:37;;;;;;;14.53;8.53;;;;;;;;;;5076956;28;20209;-66
2023/06/19 00:10:03;;;;;;;14.93;8.53;;;;;;;;;;5076921;28;20228;-66
2023/06/19 00:12:29;;;;;;;16.37;8.53;;;;;;;;;;5076681;28;20251;-66
2023/06/19 00:14:55;;;;;;;11.60;7.90;;;;;;;;;;5075085;28;20182;-66
2023/06/19 00:17:21;;;;;;;11.63;8.03;;;;;;;;;;5075003;28;20217;-66
2023/06/19 00:19:48;;;;;;;9.27;7.80;;;;;;;;;;5074850;28;20197;-66
2023/06/19 00:22:14;;;;;;;9.60;7.10;;;;;;;;;;5076561;28;20180;-66
2023/06/19 00:24:40;;;;;;;9.50;7.60;;;;;;;;;;5074856;28;20213;-66
2023/06/19 00:27:06;;;;;;;9.70;7.07;;;;;;;;;;5076269;28;20204;-66
2023/06/19 00:29:33;;;;;;;8.27;7.20;;;;;;;;;;5075748;28;20197;-66
2023/06/19 00:31:59;;;;;;;9.83;7.10;;;;;;;;;;5076245;28;20229;-66
2023/06/19 00:34:25;;;;;;;8.13;6.80;;;;;;;;;;5074854;28;20268;-66
2023/06/19 00:36:55;;;;;;;7.90;6.90;;;;;;;;;;5075978;28;20601;-66
2023/06/19 00:39:21;;;;;;;10.03;7.17;;;;;;;;;;5076031;28;20197;-66
2023/06/19 00:41:48;;;;;;;7.43;6.73;;;;;;;;;;5075727;28;20555;-66
2023/06/19 00:44:14;;;;;;;7.47;6.77;;;;;;;;;;5074912;28;20177;-65
2023/06/19 00:46:41;;;;;;;10.80;6.83;;;;;;;;;;5076747;28;20177;-66
2023/06/19 00:49:07;;;;;;;7.27;6.57;;;;;;;;;;5074703;28;20205;-65
2023/06/19 00:51:33;;;;;;;7.40;6.70;;;;;;;;;;5075595;28;20238;-66
2023/06/19 00:54:00;;;;;;;7.83;6.70;;;;;;;;;;5074358;28;20200;-66
2023/06/19 00:56:26;;;;;;;7.80;6.97;;;;;;;;;;5075733;28;20291;-65
2023/06/19 00:58:53;;;;;;;9.50;7.10;;;;;;;;;;5075503;28;20663;-65
2023/06/19 01:01:21;;;;;;;7.43;6.73;;;;;;;;;;5075977;28;20173;-66
2023/06/19 01:03:47;;;;;;;7.60;6.80;;;;;;;;;;5074175;28;20213;-66
2023/06/19 01:06:22;;;;;;;7.10;6.40;;;;;;;;;;5075760;28;20193;-66
2023/06/19 01:08:53;;;;;;;7.70;7.00;;;;;;;;;;5075344;28;20189;-66
2023/06/19 01:11:21;;;;;;;8.67;6.57;;;;;;;;;;5075450;28;20644;-66
2023/06/19 01:14:00;;;;;;;10.13;7.17;;;;;;;;;;5074756;28;20174;-66
2023/06/19 01:16:26;;;;;;;11.20;6.67;;;;;;;;;;5075654;28;20220;-66
2023/06/19 01:18:52;;;;;;;9.57;6.67;;;;;;;;;;5075668;28;20697;-66
2023/06/19 01:21:19;;;;;;;6.83;6.13;;;;;;;;;;5075508;28;20174;-66
2023/06/19 01:23:45;;;;;;;7.93;7.00;;;;;;;;;;5075397;28;20636;-66
2023/06/19 01:26:12;;;;;;;7.90;6.70;;;;;;;;;;5075637;28;20185;-66
2023/06/19 01:28:39;;;;;;;8.50;7.27;;;;;;;;;;5074990;28;20741;-66
2023/06/19 01:31:18;;;;;;;8.13;6.90;;;;;;;;;;5074800;28;20196;-66
2023/06/19 01:33:45;;;;;;;7.40;6.70;;;;;;;;;;5075004;28;20173;-66
2023/06/19 01:36:11;;;;;;;9.47;7.07;;;;;;;;;;5074915;28;20188;-66
2023/06/19 01:38:38;;;;;;;8.50;7.57;;;;;;;;;;5074529;28;20205;-66
2023/06/19 01:41:05;;;;;;;10.33;7.00;;;;;;;;;;5074705;28;20208;-66
2023/06/19 01:43:31;;;;;;;8.37;6.90;;;;;;;;;;5075637;28;20231;-66
2023/06/19 01:45:57;;;;;;;7.60;6.90;;;;;;;;;;5076207;28;20188;-66
2023/06/19 01:48:23;;;;;;;9.63;6.83;;;;;;;;;;5076669;28;20174;-66
2023/06/19 01:50:49;;;;;;;12.20;7.40;;;;;;;;;;5075815;28;20193;-66
2023/06/19 01:53:15;;;;;;;8.33;7.53;;;;;;;;;;5075160;28;20193;-66
2023/06/19 01:55:42;;;;;;;9.90;8.03;;;;;;;;;;5074764;28;20174;-63
2023/06/19 01:58:08;;;;;;;12.63;7.20;;;;;;;;;;5074548;28;20214;-63
2023/06/19 02:00:35;;;;;;;8.53;7.60;;;;;;;;;;5074743;28;20312;-66
2023/06/19 02:03:01;;;;;;;9.87;7.70;;;;;;;;;;5074239;28;20289;-66
2023/06/19 02:05:27;;;;;;;9.83;7.80;;;;;;;;;;5074379;28;20277;-66
2023/06/19 02:07:53;;;;;;;10.43;7.90;;;;;;;;;;5074339;28;20209;-66
2023/06/19 02:10:19;;;;;;;8.57;7.77;;;;;;;;;;5073978;28;20217;-66
2023/06/19 02:12:45;;;;;;;9.93;7.87;;;;;;;;;;5072572;28;20232;-66
2023/06/19 02:15:11;;;;;;;9.10;7.63;;;;;;;;;;5073855;28;20586;-66
2023/06/19 02:17:37;;;;;;;9.23;8.00;;;;;;;;;;5073906;28;20174;-66
2023/06/19 02:20:07;;;;;;;9.07;7.83;;;;;;;;;;5073817;28;20201;-65
2023/06/19 02:22:33;;;;;;;8.77;7.27;;;;;;;;;;5072542;28;20655;-66
2023/06/19 02:24:59;;;;;;;8.70;7.90;;;;;;;;;;5073789;28;20206;-66
2023/06/19 02:27:25;;;;;;;8.40;7.60;;;;;;;;;;5072220;28;20178;-66
2023/06/19 02:29:51;;;;;;;8.47;7.77;;;;;;;;;;5073626;28;20296;-66
2023/06/19 02:32:17;;;;;;;7.77;6.90;;;;;;;;;;5074055;28;20601;-66
2023/06/19 02:34:43;;;;;;;9.03;7.67;;;;;;;;;;5072276;28;20542;-66
2023/06/19 02:37:09;;;;;;;7.60;6.90;;;;;;;;;;5073514;28;20222;-66
2023/06/19 02:39:35;;;;;;;7.67;6.90;;;;;;;;;;5073412;28;20189;-65
2023/06/19 02:42:01;;;;;;;9.10;7.10;;;;;;;;;;5073298;28;20182;-65
2023/06/19 02:44:27;;;;;;;8.60;7.13;;;;;;;;;;5073456;28;20174;-66
2023/06/19 02:46:53;;;;;;;6.70;6.20;;;;;;;;;;5073521;28;20201;-66
2023/06/19 02:49:19;;;;;;;10.53;7.07;;;;;;;;;;5073273;28;20229;-66
2023/06/19 02:51:45;;;;;;;7.20;6.60;;;;;;;;;;5071916;28;20210;-66
2023/06/19 02:54:11;;;;;;;7.20;5.80;;;;;;;;;;5073314;28;20614;-66
2023/06/19 02:56:38;;;;;;;7.40;6.37;;;;;;;;;;5073578;28;20196;-66
2023/06/19 02:59:04;;;;;;;6.33;5.20;;;;;;;;;;5073267;28;20552;-65
2023/06/19 03:01:30;;;;;;;6.27;5.30;;;;;;;;;;5073580;28;20181;-66
2023/06/19 03:03:56;;;;;;;6.07;5.47;;;;;;;;;;5073416;28;20692;-66
2023/06/19 03:06:23;;;;;;;5.97;4.83;;;;;;;;;;5073642;28;20643;-66
2023/06/19 03:08:48;;;;;;;5.97;5.47;;;;;;;;;;5073896;28;20257;-66
2023/06/19 03:11:14;;;;;;;5.20;4.80;;;;;;;;;;5073083;28;20210;-66
2023/06/19 03:13:51;;;;;;;5.20;4.50;;;;;;;;;;5071663;28;20182;-66
2023/06/19 03:16:17;;;;;;;5.20;4.70;;;;;;;;;;5071706;28;20184;-66
2023/06/19 03:18:46;;;;;;;5.40;4.90;;;;;;;;;;5072623;28;20181;-66
2023/06/19 03:21:12;;;;;;;5.20;4.70;;;;;;;;;;5072433;28;20173;-66
2023/06/19 03:23:38;;;;;;;5.03;4.63;;;;;;;;;;5072982;28;20170;-66
2023/06/19 03:26:04;;;;;;;4.90;4.50;;;;;;;;;;5072381;28;20204;-66
2023/06/19 03:28:30;;;;;;;4.63;4.23;;;;;;;;;;5072570;28;20178;-66
2023/06/19 03:30:56;;;;;;;4.90;4.40;;;;;;;;;;5072363;28;20255;-66
2023/06/19 03:33:22;;;;;;;6.90;4.47;;;;;;;;;;5072437;28;20212;-66
2023/06/19 03:35:48;;;;;;;5.10;4.60;;;;;;;;;;5074663;28;20544;-66
2023/06/19 03:38:14;;;;;;;4.73;4.33;;;;;;;;;;5074662;28;20533;-66
2023/06/19 03:40:40;;;;;;;5.90;5.10;;;;;;;;;;5075726;28;20221;-65
2023/06/19 03:43:06;;;;;;;5.07;4.20;;;;;;;;;;5074611;28;20647;-66
2023/06/19 03:45:32;;;;;;;5.60;4.70;;;;;;;;;;5074648;28;20185;-68
2023/06/19 03:47:59;;;;;;;5.20;4.70;;;;;;;;;;5075998;28;20182;-66
2023/06/19 03:50:25;;;;;;;4.95;4.53;;;;;;;;;;5075155;28;20395;-67
2023/06/19 03:52:51;;;;;;;5.00;4.50;;;;;;;;;;5076081;28;20201;-67
2023/06/19 03:55:17;;;;;;;5.00;4.47;;;;;;;;;;5078277;28;20178;-66
2023/06/19 03:57:43;;;;;;;4.60;4.20;;;;;;;;;;5076030;28;20174;-66
2023/06/19 04:00:10;;;;;;;4.50;4.00;;;;;;;;;;5075431;28;20233;-66
2023/06/19 04:02:36;;;;;;;4.80;4.40;;;;;;;;;;5075557;28;20596;-66
2023/06/19 04:05:02;;;;;;;6.30;4.20;;;;;;;;;;5074110;28;20182;-67
2023/06/19 04:07:29;;;;;;;4.57;4.17;;;;;;;;;;5075476;28;20185;-66
2023/06/19 04:09:55;;;;;;;4.67;4.27;;;;;;;;;;5040092;28;1019032;-67
2023/06/19 04:12:21;;;;;;;5.63;4.40;;;;;;;;;;5076249;28;20198;-64
2023/06/19 04:14:47;;;;;;;5.07;4.63;;;;;;;;;;5076412;28;20170;-64
2023/06/19 04:17:15;;;;;;;5.27;4.87;;;;;;;;;;5076190;28;20170;-64
2023/06/19 04:19:41;;;;;;;9.27;4.73;;;;;;;;;;5076617;28;20278;-64
2023/06/19 04:22:07;;;;;;;5.17;4.67;;;;;;;;;;5074690;28;20190;-64
2023/06/19 04:24:33;;;;;;;9.20;5.03;;;;;;;;;;5076612;28;20590;-64
2023/06/19 04:26:59;;;;;;;6.00;4.73;;;;;;;;;;5076212;28;20670;-64
2023/06/19 04:29:25;;;;;;;5.50;5.00;;;;;;;;;;5076326;28;20197;-65
2023/06/19 04:31:51;;;;;;;4.30;3.90;;;;;;;;;;5075977;28;20240;-65
2023/06/19 04:34:20;;;;;;;4.83;4.30;;;;;;;;;;5076101;28;20173;-64
2023/06/19 04:36:46;;;;;;;5.93;4.20;;;;;;;;;;5076207;28;20584;-64
2023/06/19 04:39:12;;;;;;;4.37;3.97;;;;;;;;;;5075759;28;20249;-64
2023/06/19 04:41:39;;;;;;;4.37;3.97;;;;;;;;;;5076179;28;20185;-65
2023/06/19 04:44:06;;;;;;;3.80;3.50;;;;;;;;;;5075720;28;20205;-65
2023/06/19 04:46:32;;;;;;;3.73;3.43;;;;;;;;;;5074992;28;20692;-67
2023/06/19 04:48:57;;;;;;;5.27;3.50;;;;;;;;;;5075396;28;20270;-66
2023/06/19 04:51:23;;;;;;;4.60;4.20;;;;;;;;;;5075478;28;20216;-66
2023/06/19 04:53:49;;;;;;;4.77;4.27;;;;;;;;;;5075849;28;20640;-67
2023/06/19 04:56:16;;;;;;;4.87;4.30;;;;;;;;;;5076324;28;20174;-68
2023/06/19 04:58:48;;;;;;;5.93;4.10;;;;;;;;;;5076078;28;20256;-68
2023/06/19 05:01:15;;;;;;;7.43;4.30;;;;;;;;;;5076908;28;20232;-71
2023/06/19 05:03:41;;;;;;;4.07;3.70;;;;;;;;;;5076669;28;20208;-68
2023/06/19 05:06:08;;;;;;;4.57;4.17;;;;;;;;;;5076302;28;20182;-67
2023/06/19 05:08:34;;;;;;;4.53;4.13;;;;;;;;;;5075980;28;20219;-69
2023/06/19 05:11:00;;;;;;;6.03;4.00;;;;;;;;;;5075414;28;20667;-67
2023/06/19 05:13:26;;;;;;;4.80;4.40;;;;;;;;;;5075385;28;20193;-67
2023/06/19 05:15:52;;;;;;;4.53;3.90;;;;;;;;;;5075227;28;20223;-67
2023/06/19 05:18:18;;;;;;;4.70;4.30;;;;;;;;;;5074071;28;20557;-67
2023/06/19 05:20:44;;;;;;;6.00;4.40;;;;;;;;;;5075427;28;20202;-66
2023/06/19 05:23:10;;;;;;;4.83;4.43;;;;;;;;;;5075369;28;20181;-64
2023/06/19 05:25:36;;;;;;;4.70;4.30;;;;;;;;;;5076251;28;20185;-67
2023/06/19 05:28:02;;;;;;;4.60;4.10;;;;;;;;;;5075529;28;20174;-64
2023/06/19 05:30:28;;;;;;;6.27;4.10;;;;;;;;;;5074956;28;20212;-65
2023/06/19 05:32:54;;;;;;;6.47;4.03;;;;;;;;;;5075275;28;20194;-65
2023/06/19 05:35:21;;;;;;;3.87;3.57;;;;;;;;;;5074900;28;20173;-68
2023/06/19 05:37:47;;;;;;;4.63;3.23;;;;;;;;;;5075307;28;20659;-66
2023/06/19 05:40:13;;;;;;;4.67;4.00;;;;;;;;;;5075212;28;20185;-66
2023/06/19 05:42:40;;;;;;;3.73;3.43;;;;;;;;;;5074709;28;20185;-66
2023/06/19 05:45:06;;;;;;;4.63;3.87;;;;;;;;;;5074772;28;20216;-66
2023/06/19 05:47:32;;;;;;;4.37;3.97;;;;;;;;;;5075684;28;20627;-67
2023/06/19 05:49:58;;;;;;;8.30;3.70;;;;;;;;;;5074216;28;20240;-65
2023/06/19 05:52:24;;;;;;;4.37;4.00;;;;;;;;;;5075175;28;20217;-69
2023/06/19 05:54:51;;;;;;;4.03;3.63;;;;;;;;;;5075633;28;20177;-67
2023/06/19 05:57:20;;;;;;;5.60;4.10;;;;;;;;;;5074681;28;20244;-68
2023/06/19 05:59:46;;;;;;;4.37;3.70;;;;;;;;;;5074971;28;20201;-70
2023/06/19 06:02:12;;;;;;;4.77;4.10;;;;;;;;;;5077421;28;20640;-67
2023/06/19 06:04:38;;;;;;;4.20;3.83;;;;;;;;;;5075545;28;20285;-66
2023/06/19 06:07:04;;;;;;;7.13;3.90;;;;;;;;;;5075991;28;20235;-67
2023/06/19 06:09:30;;;;;;;4.23;3.83;;;;;;;;;;5075072;28;20217;-66
2023/06/19 06:11:56;;;;;;;4.87;3.90;;;;;;;;;;5075509;28;20209;-67
2023/06/19 06:14:22;;;;;;;4.27;3.80;;;;;;;;;;5073091;28;20597;-64
2023/06/19 06:16:48;;;;;;;6.57;3.40;;;;;;;;;;5074726;28;20174;-65
2023/06/19 06:19:14;;;;;;;4.10;3.70;;;;;;;;;;5074642;28;20706;-66
2023/06/19 06:21:40;;;;;;;4.77;3.87;;;;;;;;;;5074264;28;20181;-66
2023/06/19 06:24:06;;;;;;;4.73;3.53;;;;;;;;;;5074067;28;20189;-66
2023/06/19 06:26:33;;;;;;;5.30;3.70;;;;;;;;;;5074019;28;20186;-66
2023/06/19 06:28:59;;;;;;;4.40;4.00;;;;;;;;;;5074225;28;20681;-66
2023/06/19 06:31:25;;;;;;;4.87;3.57;;;;;;;;;;5074616;28;20566;-65
2023/06/19 06:33:51;;;;;;;3.90;3.60;;;;;;;;;;5074911;28;20199;-65
2023/06/19 06:36:17;;;;;;;4.33;3.57;;;;;;;;;;5074809;28;20182;-66
2023/06/19 06:38:43;;;;;;;3.87;3.50;;;;;;;;;;5075203;28;20178;-63
2023/06/19 06:41:09;;;;;;;4.47;3.57;;;;;;;;;;5074737;28;20174;-65
2023/06/19 06:43:35;;;;;;;3.70;3.40;;;;;;;;;;5074967;28;20181;-64
2023/06/19 06:46:01;;;;;;;4.10;3.70;;;;;;;;;;5074106;28;20302;-65
2023/06/19 06:48:27;;;;;;;4.10;3.70;;;;;;;;;;5074305;28;20655;-65
2023/06/19 06:50:58;;;;;;;4.93;3.87;;;;;;;;;;5073032;28;20658;-65
2023/06/19 06:53:25;;;;;;;4.10;3.70;;;;;;;;;;5074154;28;20186;-66
2023/06/19 06:55:52;;;;;;;9.37;4.03;;;;;;;;;;5074132;28;20181;-66
2023/06/19 06:58:18;;;;;;;3.80;3.47;;;;;;;;;;5073031;28;20186;-66
2023/06/19 07:00:45;;;;;;;5.90;3.73;;;;;;;;;;5074383;28;20189;-65
2023/06/19 07:03:11;;;;;;;4.23;3.70;;;;;;;;;;5074061;28;20268;-66
2023/06/19 07:05:37;;;;;;;5.27;3.30;;;;;;;;;;5073995;28;20239;-66
2023/06/19 07:08:03;;;;;;;4.17;3.17;;;;;;;;;;5073978;28;20178;-66
2023/06/19 07:10:29;;;;;;;6.50;3.03;;;;;;;;;;5071375;28;20715;-66
2023/06/19 07:12:56;;;;;;;3.83;3.43;;;;;;;;;;5073806;28;20232;-66
2023/06/19 07:15:22;;;;;;;3.70;3.40;;;;;;;;;;5073656;28;20177;-67
2023/06/19 07:17:48;;;;;;;5.67;3.50;;;;;;;;;;5072483;28;20189;-66
2023/06/19 07:20:14;;;;;;;4.70;3.63;;;;;;;;;;5073517;28;20284;-66
2023/06/19 07:22:40;;;;;;;4.57;2.93;;;;;;;;;;5073108;28;20261;-66
2023/06/19 07:25:06;;;;;;;5.93;3.73;;;;;;;;;;5073220;28;20239;-66
2023/06/19 07:27:32;;;;;;;4.37;3.97;;;;;;;;;;5073197;28;20555;-66
2023/06/19 07:29:58;;;;;;;10.50;3.53;;;;;;;;;;5073136;28;20198;-66
2023/06/19 07:32:24;;;;;;;4.93;3.73;;;;;;;;;;5073000;28;20197;-66
2023/06/19 07:34:50;;;;;;;4.80;3.70;;;;;;;;;;5073428;28;20170;-67
2023/06/19 07:37:19;;;;;;;6.13;3.90;;;;;;;;;;5073131;28;20185;-66
2023/06/19 07:39:46;;;;;;;5.90;3.53;;;;;;;;;;5071870;28;20205;-66
2023/06/19 07:42:11;;;;;;;3.80;3.50;;;;;;;;;;5073175;28;20190;-65
2023/06/19 07:44:37;;;;;;;5.20;3.50;;;;;;;;;;5073134;28;20184;-66
2023/06/19 07:47:03;;;;;;;4.60;3.90;;;;;;;;;;5074028;28;20189;-66
2023/06/19 07:49:29;;;;;;;3.60;3.30;;;;;;;;;;5072794;28;20573;-66
2023/06/19 07:51:55;;;;;;;8.83;4.03;;;;;;;;;;5071389;28;20205;-66
2023/06/19 07:54:21;;;;;;;4.03;3.60;;;;;;;;;;5071471;28;20181;-66
2023/06/19 07:56:47;;;;;;;3.50;3.20;;;;;;;;;;5073136;28;20253;-67
2023/06/19 07:59:14;;;;;;;3.60;3.30;;;;;;;;;;5072711;28;20217;-66
2023/06/19 08:01:40;;;;;;;3.60;3.23;;;;;;;;;;5073143;28;20174;-66
2023/06/19 08:04:06;;;;;;;4.10;3.70;;;;;;;;;;5073366;28;20177;-66
2023/06/19 08:06:32;;;;;;;4.50;2.97;;;;;;;;;;5071808;28;20577;-66
2023/06/19 08:08:58;;;;;;;3.50;3.20;;;;;;;;;;5073183;28;20182;-66
2023/06/19 08:11:24;;;;;;;3.80;3.50;;;;;;;;;;5074299;28;20226;-67
2023/06/19 08:13:50;;;;;;;3.50;3.17;;;;;;;;;;5071693;28;20217;-66
2023/06/19 08:16:17;;;;;;;5.53;3.60;;;;;;;;;;5072673;28;20178;-66
2023/06/19 08:18:44;;;;;;;3.60;3.17;;;;;;;;;;5072819;28;20170;-66
2023/06/19 08:21:10;;;;;;;3.83;3.20;;;;;;;;;;5073365;28;20200;-66
2023/06/19 08:23:37;;;;;;;5.37;3.73;;;;;;;;;;5075361;28;20539;-69
2023/06/19 08:26:03;;;;;;;4.03;3.63;;;;;;;;;;5076652;28;20178;-66
2023/06/19 08:28:30;;;;;;;6.13;3.23;;;;;;;;;;5076019;28;20178;-66
2023/06/19 08:30:56;;;;;;;8.00;3.53;;;;;;;;;;5075994;28;20588;-67
2023/06/19 08:33:22;;;;;;;5.53;3.60;;;;;;;;;;5075850;28;20198;-66
2023/06/19 08:35:48;;;;;;;4.23;3.33;;;;;;;;;;5076078;28;20261;-66
2023/06/19 08:38:14;;;;;;;4.63;3.40;;;;;;;;;;5075677;28;20253;-66
2023/06/19 08:40:42;;;;;;;3.73;3.43;;;;;;;;;;5075995;28;20194;-66
2023/06/19 08:43:08;;;;;;;4.50;3.63;;;;;;;;;;5075605;28;20205;-67
2023/06/19 08:45:34;;;;;;;3.37;3.07;;;;;;;;;;5074437;28;20184;-66
2023/06/19 08:48:04;;;;;;;5.33;3.33;;;;;;;;;;5075628;28;20551;-66
2023/06/19 08:50:33;;;;;;;5.27;3.50;;;;;;;;;;5075470;28;20225;-66
2023/06/19 08:52:59;;;;;;;3.70;3.40;;;;;;;;;;5075615;28;20280;-66
2023/06/19 08:55:25;;;;;;;4.20;3.50;;;;;;;;;;5076055;28;20203;-66
2023/06/19 08:57:52;;;;;;;3.80;3.40;;;;;;;;;;5076949;28;20174;-66
2023/06/19 09:00:25;;;;;;;5.97;3.33;;;;;;;;;;5077466;28;20197;-67
2023/06/19 09:02:52;;;;;;;4.80;3.20;;;;;;;;;;5076085;28;20185;-68
2023/06/19 09:05:18;;;;;;;4.80;3.70;;;;;;;;;;5076719;28;20178;-66
2023/06/19 09:07:45;;;;;;;4.23;3.83;;;;;;;;;;5076079;28;20185;-68
2023/06/19 09:10:15;;;;;;;6.77;3.90;;;;;;;;;;5076732;28;20228;-65
2023/06/19 09:12:43;;;;;;;6.77;4.17;;;;;;;;;;5075761;28;20292;-66
2023/06/19 09:15:13;;;;;;;5.17;3.80;;;;;;;;;;5075416;28;20166;-66
2023/06/19 09:17:39;;;;;;;4.30;3.90;;;;;;;;;;5075886;28;20170;-66
2023/06/19 09:20:05;;;;;;;8.47;3.80;;;;;;;;;;5075410;28;20193;-66
2023/06/19 09:22:32;;;;;;;8.70;4.07;;;;;;;;;;5075375;28;20189;-66
2023/06/19 09:25:02;;;;;;;5.13;3.70;;;;;;;;;;5076007;28;20174;-66
2023/06/19 09:27:32;;;;;;;9.10;4.10;;;;;;;;;;5075627;28;20174;-66
2023/06/19 09:29:58;;;;;;;3.90;3.60;;;;;;;;;;5075952;28;20198;-66
2023/06/19 09:32:26;;;;;;;4.07;3.67;;;;;;;;;;5075801;28;20201;-66
2023/06/19 09:34:53;;;;;;;7.03;3.83;;;;;;;;;;5076270;28;20178;-67
2023/06/19 09:37:24;;;;;;;8.90;3.80;;;;;;;;;;5075940;28;20639;-66
2023/06/19 09:39:54;;;;;;;6.80;4.43;;;;;;;;;;5080015;28;20200;-66
2023/06/19 09:42:24;;;;;;;10.80;4.40;;;;;;;;;;5074651;28;20194;-66
2023/06/19 09:44:51;;;;;;;4.60;4.13;;;;;;;;;;5074743;28;20173;-67
2023/06/19 09:47:24;;;;;;;5.80;4.60;;;;;;;;;;5075084;28;20182;-66
2023/06/19 09:49:54;;;;;;;4.43;4.03;;;;;;;;;;5074943;28;20247;-66
2023/06/19 09:52:22;;;;;;;6.80;4.47;;;;;;;;;;5075456;28;20277;-66
2023/06/19 09:54:49;;;;;;;4.53;4.10;;;;;;;;;;5074923;28;20585;-66
2023/06/19 09:57:15;;;;;;;5.70;4.40;;;;;;;;;;5073405;28;20522;-67
2023/06/19 09:59:41;;;;;;;12.20;4.90;;;;;;;;;;5074594;28;20205;-69
2023/06/19 10:02:08;;;;;;;5.40;4.90;;;;;;;;;;5075293;28;20174;-67
2023/06/19 10:04:47;;;;;;;4.90;4.33;;;;;;;;;;5075072;28;20521;-65
2023/06/19 10:07:23;;;;;;;5.00;4.50;;;;;;;;;;5075094;28;20207;-68
2023/06/19 10:09:56;;;;;;;6.57;4.90;;;;;;;;;;5074920;28;20595;-72
2023/06/19 10:12:22;;;;;;;5.30;4.87;;;;;;;;;;5073631;28;20218;-67
2023/06/19 10:14:49;;;;;;;4.97;4.47;;;;;;;;;;5074922;28;20170;-66
2023/06/19 10:17:17;;;;;;;6.07;5.47;;;;;;;;;;5076100;28;20174;-67
2023/06/19 10:19:50;;;;;;;6.10;5.50;;;;;;;;;;5075775;28;20568;-69
2023/06/19 10:22:21;;;;;;;6.00;5.40;;;;;;;;;;5098844;22;20170;-68
2023/06/19 10:24:51;;;;;;;6.43;5.27;;;;;;;;;;5052382;28;20199;-67
2023/06/19 10:27:26;;;;;;;5.77;5.17;;;;;;;;;;5053707;28;20171;-68
2023/06/19 10:29:53;;;;;;;6.03;5.43;;;;;;;;;;5052859;28;20413;-69
2023/06/19 10:32:19;;;;;;;6.28;5.68;;;;;;;;;;5052643;28;20413;-67
2023/06/19 10:34:49;;;;;;;6.00;5.40;;;;;;;;;;5053249;28;20167;-68
2023/06/19 10:37:18;;;;;;;6.10;5.50;;;;;;;;;;5053333;28;20171;-67
2023/06/19 10:39:44;;;;;;;5.33;4.53;;;;;;;;;;5053282;28;20186;-68
2023/06/19 10:42:10;;;;;;;8.43;5.23;;;;;;;;;;5053182;28;20653;-68
2023/06/19 10:44:37;;;;;;;7.10;5.50;;;;;;;;;;5052507;28;20175;-68
2023/06/19 10:47:04;;;;;;;5.80;5.07;;;;;;;;;;5051786;28;20718;-68
2023/06/19 10:49:30;;;;;;;7.73;5.30;;;;;;;;;;5053698;28;20315;-68
2023/06/19 10:51:59;;;;;;;8.30;6.10;;;;;;;;;;5053048;28;20281;-68
2023/06/19 10:54:25;;;;;;;10.37;5.70;;;;;;;;;;5052895;28;20263;-68
2023/06/19 10:56:52;;;;;;;6.90;5.47;;;;;;;;;;5053056;28;20174;-68
2023/06/19 10:59:18;;;;;;;9.43;6.23;;;;;;;;;;5052883;28;20781;-68
2023/06/19 11:01:46;;;;;;;6.97;6.13;;;;;;;;;;5053009;28;20210;-68
2023/06/19 11:04:13;;;;;;;10.13;6.57;;;;;;;;;;5052779;28;20194;-68
2023/06/19 11:06:40;;;;;;;7.37;6.57;;;;;;;;;;5051539;28;20218;-68
2023/06/19 11:09:06;;;;;;;8.03;6.17;;;;;;;;;;5051721;28;20232;-68
2023/06/19 11:11:40;;;;;;;6.97;5.60;;;;;;;;;;5051478;28;20582;-68
2023/06/19 11:14:06;;;;;;;8.30;5.70;;;;;;;;;;5052618;28;20733;-68
2023/06/19 11:16:33;;;;;;;6.03;5.43;;;;;;;;;;5053050;28;20539;-68
2023/06/19 11:18:59;;;;;;;6.13;5.53;;;;;;;;;;5052727;28;20182;-68
2023/06/19 11:21:37;;;;;;;8.20;6.23;;;;;;;;;;5052845;28;20714;-67
2023/06/19 11:24:03;;;;;;;9.33;5.90;;;;;;;;;;5052621;28;20236;-67
2023/06/19 11:26:29;;;;;;;6.03;5.43;;;;;;;;;;5051575;28;20200;-68
2023/06/19 11:28:55;;;;;;;6.37;5.77;;;;;;;;;;5052910;28;20174;-68
2023/06/19 11:31:27;;;;;;;7.70;6.20;;;;;;;;;;5052817;28;20179;-69
2023/06/19 11:34:02;;;;;;;8.57;5.77;;;;;;;;;;5051369;28;20695;-68
2023/06/19 11:36:29;;;;;;;8.17;6.23;;;;;;;;;;5053007;28;20178;-68
2023/06/19 11:38:55;;;;;;;6.67;5.53;;;;;;;;;;5052728;28;20657;-68
2023/06/19 11:41:30;;;;;;;6.43;5.83;;;;;;;;;;5052915;28;20205;-69
2023/06/19 11:44:04;;;;;;;8.30;5.40;;;;;;;;;;5052490;28;20561;-68
2023/06/19 11:46:30;;;;;;;6.13;5.53;;;;;;;;;;5052568;28;20205;-68
2023/06/19 11:49:08;;;;;;;6.87;6.17;;;;;;;;;;5052737;28;20262;-68
2023/06/19 11:51:33;;;;;;;11.33;6.03;;;;;;;;;;5052763;28;20224;-68
2023/06/19 11:53:59;;;;;;;6.53;6.00;;;;;;;;;;5052499;28;20690;-68
2023/06/19 11:56:25;;;;;;;7.77;5.83;;;;;;;;;;5053756;28;20632;-68
2023/06/19 11:58:51;;;;;;;7.73;5.80;;;;;;;;;;5056351;28;20229;-68
2023/06/19 12:01:17;;;;;;;7.67;6.43;;;;;;;;;;5056490;28;20182;-68
2023/06/19 12:03:43;;;;;;;6.87;6.17;;;;;;;;;;5056814;28;20202;-68
2023/06/19 12:06:09;;;;;;;9.77;5.80;;;;;;;;;;5056420;28;20182;-68
2023/06/19 12:08:37;;;;;;;7.07;5.97;;;;;;;;;;5056371;28;20186;-68
2023/06/19 12:11:05;;;;;;;7.67;6.33;;;;;;;;;;5054827;28;20192;-68
2023/06/19 12:13:30;;;;;;;7.23;5.90;;;;;;;;;;5054651;28;20214;-68
2023/06/19 12:15:56;;;;;;;10.10;6.07;;;;;;;;;;5055988;28;20201;-69
2023/06/19 12:18:22;;;;;;;9.40;5.97;;;;;;;;;;5055841;28;20179;-68
2023/06/19 12:20:48;;;;;;;7.23;6.53;;;;;;;;;;5056162;28;20181;-68
2023/06/19 12:23:14;;;;;;;7.80;6.57;;;;;;;;;;5055620;28;20218;-68
2023/06/19 12:25:40;;;;;;;7.57;6.00;;;;;;;;;;5056087;28;20261;-68
2023/06/19 12:28:10;;;;;;;10.53;6.33;;;;;;;;;;5054355;28;20233;-68
2023/06/19 12:30:36;;;;;;;6.97;6.33;;;;;;;;;;5056445;28;20166;-68
2023/06/19 12:33:03;;;;;;;8.63;6.00;;;;;;;;;;5055443;28;20690;-68
2023/06/19 12:35:29;;;;;;;10.70;6.20;;;;;;;;;;5055679;28;20553;-68
2023/06/19 12:37:55;;;;;;;11.53;6.37;;;;;;;;;;5055657;28;20211;-68
2023/06/19 12:40:21;;;;;;;6.90;6.07;;;;;;;;;;5055537;28;20293;-68
2023/06/19 12:42:50;;;;;;;8.27;6.23;;;;;;;;;;5055358;28;20791;-68
2023/06/19 12:45:16;;;;;;;9.37;6.00;;;;;;;;;;5054297;28;20195;-68
2023/06/19 12:47:42;;;;;;;7.20;6.50;;;;;;;;;;5055366;28;20602;-68
2023/06/19 12:50:08;;;;;;;7.27;6.40;;;;;;;;;;5055557;28;20182;-68
2023/06/19 12:52:34;;;;;;;7.57;6.60;;;;;;;;;;5055189;28;20240;-68
2023/06/19 12:55:01;;;;;;;6.73;6.13;;;;;;;;;;5055490;28;20182;-68
2023/06/19 12:57:27;;;;;;;7.33;6.43;;;;;;;;;;5055204;28;20167;-68
2023/06/19 12:59:53;;;;;;;6.43;5.83;;;;;;;;;;5053990;28;20185;-68
2023/06/19 13:02:19;;;;;;;6.80;6.20;;;;;;;;;;5055136;28;20183;-68
2023/06/19 13:04:45;;;;;;;9.65;6.10;;;;;;;;;;5055642;28;20182;-68
2023/06/19 13:07:12;;;;;;;7.50;5.60;;;;;;;;;;5053413;28;20182;-68
2023/06/19 13:09:38;;;;;;;6.77;6.10;;;;;;;;;;5054193;28;20278;-68
2023/06/19 13:12:04;;;;;;;8.93;5.93;;;;;;;;;;5055146;28;20194;-68
2023/06/19 13:14:31;;;;;;;8.63;5.83;;;;;;;;;;5054834;28;20179;-68
2023/06/19 13:16:58;;;;;;;8.73;6.53;;;;;;;;;;5055151;28;20183;-68
2023/06/19 13:19:24;;;;;;;7.57;6.45;;;;;;;;;;5052427;28;20472;-68
2023/06/19 13:21:50;;;;;;;7.13;5.57;;;;;;;;;;5054895;28;20254;-68
2023/06/19 13:24:16;;;;;;;6.90;5.70;;;;;;;;;;5054560;28;20238;-69
2023/06/19 13:26:43;;;;;;;8.47;6.30;;;;;;;;;;5054710;28;20261;-68
2023/06/19 13:29:09;;;;;;;6.10;5.50;;;;;;;;;;5054526;28;20240;-68
2023/06/19 13:31:35;;;;;;;8.07;5.97;;;;;;;;;;5054435;28;20201;-68
2023/06/19 13:34:01;;;;;;;8.90;6.22;;;;;;;;;;5054376;28;20206;-68
2023/06/19 13:36:27;;;;;;;11.38;6.00;;;;;;;;;;5055996;28;20193;-68
2023/06/19 13:38:53;;;;;;;6.40;5.70;;;;;;;;;;5056454;28;20197;-68
2023/06/19 13:41:19;;;;;;;6.50;5.70;;;;;;;;;;5055216;28;20197;-67
2023/06/19 13:43:45;;;;;;;6.15;5.63;;;;;;;;;;5053646;28;20225;-68
2023/06/19 13:46:11;;;;;;;5.82;5.32;;;;;;;;;;5054920;28;20175;-68
2023/06/19 13:48:37;;;;;;;8.05;6.15;;;;;;;;;;5054882;28;20206;-68
2023/06/19 13:51:04;;;;;;;6.45;5.45;;;;;;;;;;5053961;28;20267;-68
2023/06/19 13:53:30;;;;;;;6.75;5.35;;;;;;;;;;5053575;28;20301;-67
2023/06/19 13:55:56;;;;;;;9.10;5.15;;;;;;;;;;5054777;28;20202;-68
2023/06/19 13:58:22;;;;;;;5.68;5.18;;;;;;;;;;5054903;28;20746;-67
2023/06/19 14:00:48;;;;;;;5.68;5.18;;;;;;;;;;5053084;28;20184;-68
2023/06/19 14:03:14;;;;;;;12.10;5.35;;;;;;;;;;5054477;28;20281;-67
2023/06/19 14:05:40;;;;;;;5.93;5.45;;;;;;;;;;5053397;28;20261;-68
2023/06/19 14:08:06;;;;;;;5.88;5.35;;;;;;;;;;5054523;28;20175;-68
2023/06/19 14:10:32;;;;;;;5.82;5.40;;;;;;;;;;5054686;28;20224;-66
2023/06/19 14:12:58;;;;;;;6.53;5.93;;;;;;;;;;5054847;28;20737;-68
2023/06/19 14:15:24;;;;;;;6.47;5.65;;;;;;;;;;5054830;28;20174;-68
2023/06/19 14:17:50;;;;;;;5.95;5.45;;;;;;;;;;5053898;28;20574;-69
2023/06/19 14:20:16;;;;;;;8.15;6.15;;;;;;;;;;5053688;28;20637;-68
2023/06/19 14:22:42;;;;;;;6.68;6.00;;;;;;;;;;5053501;28;20211;-68
2023/06/19 14:25:08;;;;;;;6.15;5.55;;;;;;;;;;5053910;28;20648;-68
2023/06/19 14:27:34;;;;;;;7.22;6.45;;;;;;;;;;5053489;28;20254;-69
2023/06/19 14:30:00;;;;;;;6.97;6.38;;;;;;;;;;5054040;28;20630;-68
2023/06/19 14:32:26;;;;;;;6.78;6.13;;;;;;;;;;5053836;28;20688;-68
2023/06/19 14:34:52;;;;;;;5.55;5.15;;;;;;;;;;5053696;28;20637;-68
2023/06/19 14:37:19;;;;;;;6.45;5.85;;;;;;;;;;5052150;28;20190;-69
2023/06/19 14:39:44;;;;;;;6.65;5.50;;;;;;;;;;5053366;28;20170;-69